createdAt,value
2023-05-09T00:00:19.748Z,0.00
2023-05-09T00:01:19.955Z,0.00
2023-05-09T00:02:20.126Z,0.00
2023-05-09T00:03:20.347Z,0.00
2023-05-09T00:04:20.489Z,0.00
2023-05-09T00:05:21.861Z,0.00
2023-05-09T00:06:20.890Z,0.00
2023-05-09T00:07:21.040Z,0.00
2023-05-09T00:08:21.908Z,0.00
2023-05-09T00:09:21.444Z,0.00
2023-05-09T00:10:21.607Z,0.00
2023-05-09T00:11:22.368Z,0.00
2023-05-09T00:12:22.006Z,0.00
2023-05-09T00:13:22.344Z,0.00
2023-05-09T00:14:22.413Z,0.00
2023-05-09T00:15:24.248Z,0.00
2023-05-09T00:16:23.431Z,0.00
2023-05-09T00:17:22.983Z,0.00
2023-05-09T00:18:23.146Z,0.00
2023-05-09T00:19:23.870Z,0.00
2023-05-09T00:20:23.926Z,0.00
2023-05-09T00:21:24.362Z,0.00
2023-05-09T00:22:25.374Z,0.00
2023-05-09T00:23:24.919Z,0.00
2023-05-09T00:24:24.905Z,0.00
2023-05-09T00:25:24.392Z,0.00
2023-05-09T00:26:25.398Z,0.00
2023-05-09T00:27:24.764Z,0.00
2023-05-09T00:28:25.971Z,0.00
2023-05-09T00:29:25.117Z,0.00
2023-05-09T00:30:25.865Z,0.00
2023-05-09T00:31:25.524Z,0.00
2023-05-09T00:32:26.384Z,0.00
2023-05-09T00:33:25.903Z,0.00
2023-05-09T00:34:26.066Z,0.00
2023-05-09T00:35:26.216Z,0.00
2023-05-09T00:36:26.394Z,0.00
2023-05-09T00:37:26.549Z,0.00
2023-05-09T00:38:27.868Z,0.00
2023-05-09T00:39:26.893Z,0.00
2023-05-09T00:40:28.390Z,0.00
2023-05-09T00:41:27.159Z,0.00
2023-05-09T00:42:27.310Z,0.00
2023-05-09T00:43:27.608Z,0.00
2023-05-09T00:44:28.418Z,0.00
2023-05-09T00:45:27.807Z,0.00
2023-05-09T00:46:28.024Z,0.00
2023-05-09T00:47:29.908Z,0.00
2023-05-09T00:48:28.452Z,0.00
2023-05-09T00:49:28.618Z,0.00
2023-05-09T00:50:28.776Z,0.00
2023-05-09T00:51:29.875Z,0.00
2023-05-09T00:52:29.923Z,0.00
2023-05-09T00:53:29.337Z,0.00
2023-05-09T00:54:29.499Z,0.00
2023-05-09T00:55:29.658Z,0.00
2023-05-09T00:56:29.805Z,0.00
2023-05-09T00:57:29.959Z,0.00
2023-05-09T00:58:30.993Z,0.00
2023-05-09T00:59:30.266Z,0.00
2023-05-09T01:00:30.434Z,0.00
2023-05-09T01:01:31.422Z,0.00
2023-05-09T01:02:30.748Z,0.00
2023-05-09T01:03:32.031Z,0.00
2023-05-09T01:04:31.115Z,0.00
2023-05-09T01:05:31.309Z,0.00
2023-05-09T01:06:31.484Z,0.00
2023-05-09T01:07:33.377Z,0.00
2023-05-09T01:08:31.869Z,0.00
2023-05-09T01:09:32.930Z,0.00
2023-05-09T01:10:32.221Z,0.00
2023-05-09T01:11:32.429Z,0.00
2023-05-09T01:12:32.576Z,0.00
2023-05-09T01:13:32.736Z,0.00
2023-05-09T01:14:34.493Z,0.00
2023-05-09T01:15:33.109Z,0.00
2023-05-09T01:16:33.325Z,0.00
2023-05-09T01:17:34.894Z,0.00
2023-05-09T01:18:34.412Z,0.00
2023-05-09T01:19:34.885Z,0.00
2023-05-09T01:20:34.029Z,0.00
2023-05-09T01:21:34.199Z,0.00
2023-05-09T01:22:34.386Z,0.00
2023-05-09T01:23:34.533Z,0.00
2023-05-09T01:24:34.705Z,0.00
2023-05-09T01:25:34.881Z,0.00
2023-05-09T01:26:35.892Z,0.00
2023-05-09T01:27:35.284Z,0.00
2023-05-09T01:28:35.926Z,0.00
2023-05-09T01:29:35.585Z,0.00
2023-05-09T01:30:35.875Z,0.00
2023-05-09T01:31:36.027Z,0.00
2023-05-09T01:32:36.265Z,0.00
2023-05-09T01:33:36.426Z,0.00
2023-05-09T01:34:37.888Z,0.00
2023-05-09T01:35:36.760Z,0.00
2023-05-09T01:36:37.402Z,0.00
2023-05-09T01:37:39.778Z,0.00
2023-05-09T01:38:37.440Z,0.00
2023-05-09T01:39:37.467Z,0.00
2023-05-09T01:40:37.610Z,0.00
2023-05-09T01:41:37.739Z,0.00
2023-05-09T01:42:37.922Z,0.00
2023-05-09T01:43:38.942Z,0.00
2023-05-09T01:44:38.289Z,0.00
2023-05-09T01:45:38.598Z,0.00
2023-05-09T01:46:39.480Z,0.00
2023-05-09T01:47:38.794Z,0.00
2023-05-09T01:48:39.938Z,0.00
2023-05-09T01:49:39.182Z,0.00
2023-05-09T01:50:39.894Z,0.00
2023-05-09T01:51:40.342Z,0.00
2023-05-09T01:52:39.947Z,0.00
2023-05-09T01:53:40.433Z,0.00
2023-05-09T01:54:40.932Z,0.00
2023-05-09T01:55:40.963Z,0.00
2023-05-09T01:56:40.467Z,0.00
2023-05-09T01:57:40.641Z,0.00
2023-05-09T01:58:40.806Z,0.00
2023-05-09T01:59:40.968Z,0.00
2023-05-09T02:00:41.338Z,0.00
2023-05-09T02:01:41.311Z,0.00
2023-05-09T02:02:41.547Z,0.00
2023-05-09T02:03:42.465Z,0.00
2023-05-09T02:04:43.401Z,0.00
2023-05-09T02:05:42.044Z,0.00
2023-05-09T02:06:42.940Z,0.00
2023-05-09T02:07:42.904Z,0.00
2023-05-09T02:08:43.436Z,0.00
2023-05-09T02:09:43.431Z,0.00
2023-05-09T02:10:42.949Z,0.00
2023-05-09T02:11:43.932Z,0.00
2023-05-09T02:12:43.366Z,0.00
2023-05-09T02:13:44.519Z,0.00
2023-05-09T02:14:44.676Z,0.00
2023-05-09T02:15:43.853Z,0.00
2023-05-09T02:16:44.256Z,0.00
2023-05-09T02:17:44.991Z,0.00
2023-05-09T02:18:44.381Z,0.00
2023-05-09T02:19:44.515Z,0.00
2023-05-09T02:20:45.476Z,0.00
2023-05-09T02:21:45.442Z,0.00
2023-05-09T02:22:46.399Z,0.00
2023-05-09T02:23:45.258Z,0.00
2023-05-09T02:24:45.404Z,0.00
2023-05-09T02:25:45.580Z,0.00
2023-05-09T02:26:45.728Z,0.00
2023-05-09T02:27:45.864Z,0.00
2023-05-09T02:28:46.949Z,0.00
2023-05-09T02:29:46.950Z,0.00
2023-05-09T02:30:46.458Z,0.00
2023-05-09T02:31:46.474Z,0.00
2023-05-09T02:32:46.804Z,0.00
2023-05-09T02:33:47.406Z,0.00
2023-05-09T02:34:47.005Z,0.00
2023-05-09T02:35:48.922Z,0.00
2023-05-09T02:36:47.276Z,0.00
2023-05-09T02:37:48.398Z,0.00
2023-05-09T02:38:47.618Z,0.00
2023-05-09T02:39:47.740Z,0.00
2023-05-09T02:40:50.322Z,0.00
2023-05-09T02:41:48.065Z,0.00
2023-05-09T02:42:48.364Z,0.00
2023-05-09T02:43:49.405Z,0.00
2023-05-09T02:44:49.411Z,0.00
2023-05-09T02:45:48.807Z,0.00
2023-05-09T02:46:49.959Z,0.00
2023-05-09T02:47:49.347Z,0.00
2023-05-09T02:48:49.410Z,0.00
2023-05-09T02:49:51.416Z,0.00
2023-05-09T02:50:50.299Z,0.00
2023-05-09T02:51:50.907Z,0.00
2023-05-09T02:52:50.914Z,0.00
2023-05-09T02:53:50.793Z,0.00
2023-05-09T02:54:50.423Z,0.00
2023-05-09T02:55:50.564Z,0.00
2023-05-09T02:56:50.713Z,0.00
2023-05-09T02:57:58.908Z,0.00
2023-05-09T02:58:52.950Z,0.00
2023-05-09T02:59:51.157Z,0.00
2023-05-09T03:00:51.329Z,0.00
2023-05-09T03:01:51.519Z,0.00
2023-05-09T03:02:51.756Z,0.00
2023-05-09T03:03:52.122Z,0.00
2023-05-09T03:04:52.093Z,0.00
2023-05-09T03:05:52.915Z,0.00
2023-05-09T03:06:52.447Z,0.00
2023-05-09T03:07:52.588Z,0.00
2023-05-09T03:08:52.723Z,4.00
2023-05-09T03:09:53.481Z,0.00
2023-05-09T03:10:53.918Z,0.00
2023-05-09T03:11:53.280Z,0.00
2023-05-09T03:12:53.499Z,4.00
2023-05-09T03:13:53.649Z,0.00
2023-05-09T03:14:54.418Z,4.00
2023-05-09T03:15:54.928Z,0.00
2023-05-09T03:16:54.919Z,4.00
2023-05-09T03:17:54.428Z,4.00
2023-05-09T03:18:54.704Z,4.00
2023-05-09T03:19:55.474Z,4.00
2023-05-09T03:20:55.483Z,4.00
2023-05-09T03:21:55.108Z,8.00
2023-05-09T03:22:55.273Z,8.00
2023-05-09T03:23:56.416Z,8.00
2023-05-09T03:24:55.558Z,8.00
2023-05-09T03:25:56.475Z,12.00
2023-05-09T03:26:55.886Z,12.00
2023-05-09T03:27:57.927Z,16.00
2023-05-09T03:28:56.142Z,16.00
2023-05-09T03:29:56.308Z,16.00
2023-05-09T03:30:56.443Z,24.00
2023-05-09T03:31:56.608Z,24.00
2023-05-09T03:32:58.456Z,32.00
2023-05-09T03:33:57.608Z,32.00
2023-05-09T03:34:57.194Z,36.00
2023-05-09T03:35:57.373Z,44.00
2023-05-09T03:36:57.501Z,48.00
2023-05-09T03:37:58.926Z,56.00
2023-05-09T03:38:58.479Z,64.00
2023-05-09T03:39:59.423Z,68.00
2023-05-09T03:40:58.163Z,72.00
2023-05-09T03:41:59.926Z,76.00
2023-05-09T03:42:58.541Z,80.00
2023-05-09T03:43:58.691Z,92.00
2023-05-09T03:44:58.850Z,100.00
2023-05-09T03:45:59.007Z,112.00
2023-05-09T03:47:00.061Z,124.00
2023-05-09T03:47:59.952Z,132.00
2023-05-09T03:49:00.542Z,136.00
2023-05-09T03:49:59.694Z,140.00
2023-05-09T03:51:00.472Z,148.00
2023-05-09T03:52:00.042Z,160.00
2023-05-09T03:53:00.258Z,172.00
2023-05-09T03:54:00.423Z,184.00
2023-05-09T03:55:00.618Z,208.00
2023-05-09T03:56:00.768Z,236.00
2023-05-09T03:57:00.934Z,264.00
2023-05-09T03:58:01.125Z,288.00
2023-05-09T03:59:01.280Z,324.00
2023-05-09T04:00:01.476Z,356.00
2023-05-09T04:01:02.475Z,388.00
2023-05-09T04:02:02.465Z,428.00
2023-05-09T04:03:02.063Z,468.00
2023-05-09T04:04:02.185Z,500.00
2023-05-09T04:05:02.510Z,528.00
2023-05-09T04:06:02.990Z,540.00
2023-05-09T04:07:02.773Z,552.00
2023-05-09T04:08:02.943Z,568.00
2023-05-09T04:09:03.107Z,592.00
2023-05-09T04:10:03.258Z,636.00
2023-05-09T04:11:03.521Z,676.00
2023-05-09T04:12:03.663Z,732.00
2023-05-09T04:13:03.924Z,780.00
2023-05-09T04:14:04.995Z,820.00
2023-05-09T04:15:04.129Z,852.00
2023-05-09T04:16:04.393Z,856.00
2023-05-09T04:17:04.593Z,880.00
2023-05-09T04:18:04.840Z,876.00
2023-05-09T04:19:05.985Z,912.00
2023-05-09T04:20:05.386Z,944.00
2023-05-09T04:21:05.972Z,968.00
2023-05-09T04:22:05.619Z,952.00
2023-05-09T04:23:05.770Z,952.00
2023-05-09T04:24:05.987Z,960.00
2023-05-09T04:25:06.123Z,956.00
2023-05-09T04:26:06.279Z,956.00
2023-05-09T04:27:06.978Z,948.00
2023-05-09T04:28:07.011Z,988.00
2023-05-09T04:29:06.804Z,968.00
2023-05-09T04:30:06.955Z,936.00
2023-05-09T04:31:07.562Z,892.00
2023-05-09T04:32:07.387Z,896.00
2023-05-09T04:33:08.474Z,952.00
2023-05-09T04:34:08.022Z,1076.00
2023-05-09T04:35:07.818Z,1204.00
2023-05-09T04:36:08.139Z,1256.00
2023-05-09T04:37:09.945Z,1240.00
2023-05-09T04:38:08.984Z,1372.00
2023-05-09T04:39:09.492Z,1508.00
2023-05-09T04:40:08.991Z,1492.00
2023-05-09T04:41:10.458Z,1316.00
2023-05-09T04:42:09.257Z,1168.00
2023-05-09T04:43:09.393Z,1120.00
2023-05-09T04:44:10.446Z,1104.00
2023-05-09T04:45:09.689Z,1092.00
2023-05-09T04:46:09.853Z,1116.00
2023-05-09T04:47:10.050Z,1184.00
2023-05-09T04:48:10.959Z,1200.00
2023-05-09T04:49:11.002Z,1204.00
2023-05-09T04:50:10.553Z,1224.00
2023-05-09T04:51:10.861Z,1240.00
2023-05-09T04:52:11.891Z,1252.00
2023-05-09T04:53:10.990Z,1328.00
2023-05-09T04:54:11.239Z,1168.00
2023-05-09T04:55:12.020Z,1184.00
2023-05-09T04:56:12.487Z,1252.00
2023-05-09T04:57:18.107Z,1292.00
2023-05-09T04:58:13.881Z,1364.00
2023-05-09T04:59:12.501Z,1408.00
2023-05-09T05:00:12.249Z,1416.00
2023-05-09T05:01:12.563Z,1380.00
2023-05-09T05:02:13.516Z,1348.00
2023-05-09T05:03:12.778Z,1472.00
2023-05-09T05:04:13.538Z,1520.00
2023-05-09T05:05:13.155Z,1740.00
2023-05-09T05:06:13.505Z,1804.00
2023-05-09T05:07:13.492Z,2036.00
2023-05-09T05:08:14.039Z,2040.00
2023-05-09T05:09:13.849Z,2104.00
2023-05-09T05:10:14.655Z,2252.00
2023-05-09T05:11:15.991Z,2560.00
2023-05-09T05:12:14.323Z,2908.00
2023-05-09T05:13:14.544Z,3688.00
2023-05-09T05:14:15.454Z,3776.00
2023-05-09T05:15:17.090Z,4336.00
2023-05-09T05:16:15.063Z,4896.00
2023-05-09T05:17:16.003Z,6344.00
2023-05-09T05:18:15.958Z,4748.00
2023-05-09T05:19:16.497Z,4528.00
2023-05-09T05:20:16.466Z,3600.00
2023-05-09T05:21:15.955Z,3216.00
2023-05-09T05:22:16.187Z,3228.00
2023-05-09T05:23:16.330Z,3260.00
2023-05-09T05:24:16.442Z,3356.00
2023-05-09T05:25:17.955Z,3460.00
2023-05-09T05:26:16.795Z,3660.00
2023-05-09T05:27:19.494Z,3728.00
2023-05-09T05:28:17.130Z,3892.00
2023-05-09T05:29:18.006Z,3916.00
2023-05-09T05:30:17.962Z,3952.00
2023-05-09T05:31:18.037Z,3984.00
2023-05-09T05:32:17.859Z,3908.00
2023-05-09T05:33:17.999Z,4172.00
2023-05-09T05:34:18.154Z,4060.00
2023-05-09T05:35:18.997Z,4168.00
2023-05-09T05:36:19.466Z,4112.00
2023-05-09T05:37:18.900Z,4172.00
2023-05-09T05:38:19.500Z,4204.00
2023-05-09T05:39:19.151Z,4228.00
2023-05-09T05:40:19.998Z,4512.00
2023-05-09T05:41:19.515Z,4712.00
2023-05-09T05:42:20.471Z,5640.00
2023-05-09T05:43:20.346Z,5392.00
2023-05-09T05:44:19.996Z,4900.00
2023-05-09T05:45:20.956Z,4836.00
2023-05-09T05:46:21.059Z,5024.00
2023-05-09T05:47:20.585Z,4928.00
2023-05-09T05:48:21.364Z,4092.00
2023-05-09T05:49:21.477Z,4620.00
2023-05-09T05:50:21.124Z,4404.00
2023-05-09T05:51:22.019Z,4668.00
2023-05-09T05:52:21.585Z,4372.00
2023-05-09T05:53:21.600Z,4460.00
2023-05-09T05:54:21.734Z,4348.00
2023-05-09T05:55:21.888Z,4684.00
2023-05-09T05:56:22.046Z,4436.00
2023-05-09T05:57:22.510Z,4536.00
2023-05-09T05:58:22.976Z,4760.00
2023-05-09T05:59:22.628Z,4728.00
2023-05-09T06:00:22.804Z,4724.00
2023-05-09T06:01:22.948Z,4844.00
2023-05-09T06:02:25.382Z,4812.00
2023-05-09T06:03:23.290Z,4920.00
2023-05-09T06:04:24.004Z,5148.00
2023-05-09T06:05:23.649Z,5184.00
2023-05-09T06:06:24.462Z,5356.00
2023-05-09T06:07:24.491Z,5544.00
2023-05-09T06:08:25.022Z,5936.00
2023-05-09T06:09:24.253Z,6860.00
2023-05-09T06:10:24.962Z,8496.00
2023-05-09T06:11:25.580Z,8520.00
2023-05-09T06:12:27.284Z,8832.00
2023-05-09T06:13:25.055Z,7288.00
2023-05-09T06:14:26.021Z,7080.00
2023-05-09T06:15:26.052Z,6164.00
2023-05-09T06:16:25.489Z,6256.00
2023-05-09T06:17:25.624Z,7108.00
2023-05-09T06:18:25.786Z,4740.00
2023-05-09T06:19:25.913Z,4732.00
2023-05-09T06:20:27.987Z,5200.00
2023-05-09T06:21:26.982Z,4796.00
2023-05-09T06:22:26.340Z,4452.00
2023-05-09T06:23:26.562Z,4196.00
2023-05-09T06:24:35.076Z,4328.00
2023-05-09T06:25:29.517Z,5404.00
2023-05-09T06:26:26.968Z,5868.00
2023-05-09T06:27:27.084Z,5956.00
2023-05-09T06:28:27.311Z,4924.00
2023-05-09T06:29:27.565Z,4452.00
2023-05-09T06:30:27.780Z,4036.00
2023-05-09T06:31:27.945Z,3816.00
2023-05-09T06:32:28.223Z,3512.00
2023-05-09T06:33:29.991Z,3504.00
2023-05-09T06:34:28.982Z,3388.00
2023-05-09T06:35:28.602Z,3316.00
2023-05-09T06:36:28.709Z,3456.00
2023-05-09T06:37:28.943Z,3444.00
2023-05-09T06:38:29.196Z,3432.00
2023-05-09T06:39:29.427Z,3248.00
2023-05-09T06:40:29.561Z,3136.00
2023-05-09T06:41:30.521Z,3028.00
2023-05-09T06:42:29.894Z,2792.00
2023-05-09T06:43:30.064Z,2720.00
2023-05-09T06:44:30.285Z,2688.00
2023-05-09T06:45:30.451Z,2720.00
2023-05-09T06:46:31.546Z,2804.00
2023-05-09T06:47:30.859Z,2944.00
2023-05-09T06:48:31.016Z,2896.00
2023-05-09T06:49:31.176Z,3024.00
2023-05-09T06:50:32.908Z,3020.00
2023-05-09T06:51:32.452Z,2672.00
2023-05-09T06:52:31.814Z,2560.00
2023-05-09T06:53:33.493Z,2704.00
2023-05-09T06:54:33.105Z,2904.00
2023-05-09T06:55:33.019Z,2944.00
2023-05-09T06:56:32.405Z,2912.00
2023-05-09T06:57:32.565Z,3132.00
2023-05-09T06:58:55.373Z,3228.00
2023-05-09T06:59:33.490Z,3212.00
2023-05-09T07:00:33.122Z,3212.00
2023-05-09T07:01:34.008Z,2844.00
2023-05-09T07:02:34.036Z,2868.00
2023-05-09T07:03:33.554Z,3020.00
2023-05-09T07:04:33.742Z,3132.00
2023-05-09T07:05:34.107Z,3324.00
2023-05-09T07:06:34.073Z,3496.00
2023-05-09T07:07:34.992Z,3412.00
2023-05-09T07:08:34.364Z,3464.00
2023-05-09T07:09:34.515Z,3128.00
2023-05-09T07:10:35.794Z,3000.00
2023-05-09T07:11:35.581Z,2820.00
2023-05-09T07:12:35.095Z,2784.00
2023-05-09T07:13:36.042Z,2740.00
2023-05-09T07:14:35.553Z,2952.00
2023-05-09T07:15:42.202Z,2608.00
2023-05-09T07:16:38.570Z,2652.00
2023-05-09T07:17:39.042Z,2908.00
2023-05-09T07:18:36.079Z,3080.00
2023-05-09T07:19:36.296Z,3184.00
2023-05-09T07:20:36.533Z,3068.00
2023-05-09T07:21:38.499Z,2868.00
2023-05-09T07:22:37.659Z,2988.00
2023-05-09T07:23:37.912Z,2500.00
2023-05-09T07:24:37.063Z,2088.00
2023-05-09T07:25:37.197Z,1864.00
2023-05-09T07:26:38.157Z,1756.00
2023-05-09T07:27:37.489Z,1736.00
2023-05-09T07:28:37.724Z,1856.00
2023-05-09T07:29:38.071Z,1812.00
2023-05-09T07:30:38.086Z,1908.00
2023-05-09T07:31:38.374Z,1920.00
2023-05-09T07:32:38.584Z,2076.00
2023-05-09T07:33:38.739Z,2164.00
2023-05-09T07:34:38.896Z,2044.00
2023-05-09T07:35:39.041Z,2148.00
2023-05-09T07:37:40.356Z,2404.00
2023-05-09T07:38:40.511Z,2536.00
2023-05-09T07:39:39.750Z,2648.00
2023-05-09T07:40:39.898Z,2656.00
2023-05-09T07:41:42.326Z,2556.00
2023-05-09T07:42:41.011Z,2428.00
2023-05-09T07:43:41.008Z,2572.00
2023-05-09T07:44:40.513Z,2528.00
2023-05-09T07:45:41.102Z,2320.00
2023-05-09T07:46:41.542Z,2204.00
2023-05-09T07:47:41.046Z,2176.00
2023-05-09T07:48:42.502Z,2100.00
2023-05-09T07:49:41.398Z,2020.00
2023-05-09T07:50:41.572Z,1880.00
2023-05-09T07:51:41.709Z,1784.00
2023-05-09T07:52:41.859Z,1876.00
2023-05-09T07:53:42.056Z,1860.00
2023-05-09T07:54:42.317Z,1652.00
2023-05-09T07:55:42.493Z,1640.00
2023-05-09T07:56:42.771Z,1628.00
2023-05-09T07:57:42.783Z,1624.00
2023-05-09T07:58:43.512Z,1600.00
2023-05-09T07:59:44.084Z,1580.00
2023-05-09T08:00:43.334Z,1524.00
2023-05-09T08:01:44.007Z,1476.00
2023-05-09T08:02:43.776Z,1460.00
2023-05-09T08:03:44.021Z,1392.00
2023-05-09T08:04:44.559Z,1532.00
2023-05-09T08:05:45.048Z,1640.00
2023-05-09T08:06:45.891Z,1676.00
2023-05-09T08:07:45.505Z,1780.00
2023-05-09T08:08:46.889Z,1888.00
2023-05-09T08:09:44.994Z,2112.00
2023-05-09T08:10:46.059Z,2292.00
2023-05-09T08:11:45.548Z,2364.00
2023-05-09T08:12:45.596Z,2548.00
2023-05-09T08:13:45.730Z,2700.00
2023-05-09T08:14:46.070Z,2496.00
2023-05-09T08:15:46.137Z,2484.00
2023-05-09T08:16:46.305Z,2548.00
2023-05-09T08:17:46.535Z,2484.00
2023-05-09T08:18:46.629Z,2604.00
2023-05-09T08:19:47.071Z,2668.00
2023-05-09T08:20:46.965Z,2976.00
2023-05-09T08:21:48.014Z,3300.00
2023-05-09T08:22:47.269Z,3148.00
2023-05-09T08:23:47.400Z,2988.00
2023-05-09T08:24:47.561Z,2868.00
2023-05-09T08:25:48.569Z,2684.00
2023-05-09T08:26:48.637Z,2688.00
2023-05-09T08:27:48.008Z,2544.00
2023-05-09T08:28:50.519Z,2424.00
2023-05-09T08:29:49.529Z,2520.00
2023-05-09T08:30:49.095Z,2596.00
2023-05-09T08:31:48.847Z,2672.00
2023-05-09T08:32:49.569Z,2596.00
2023-05-09T08:33:49.519Z,2784.00
2023-05-09T08:34:50.020Z,2952.00
2023-05-09T08:35:49.268Z,2908.00
2023-05-09T08:36:49.405Z,2840.00
2023-05-09T08:37:50.551Z,2676.00
2023-05-09T08:38:52.462Z,2548.00
2023-05-09T08:39:50.074Z,2396.00
2023-05-09T08:40:50.105Z,2404.00
2023-05-09T08:41:52.142Z,2312.00
2023-05-09T08:42:50.491Z,2044.00
2023-05-09T08:43:50.662Z,1984.00
2023-05-09T08:44:51.084Z,2036.00
2023-05-09T08:45:52.915Z,2336.00
2023-05-09T08:46:51.228Z,2368.00
2023-05-09T08:47:51.367Z,2364.00
2023-05-09T08:48:51.578Z,2320.00
2023-05-09T08:49:51.717Z,2248.00
2023-05-09T08:50:52.563Z,2200.00
2023-05-09T08:51:53.081Z,2284.00
2023-05-09T08:52:53.077Z,2560.00
2023-05-09T08:53:52.468Z,2600.00
2023-05-09T08:54:52.648Z,2736.00
2023-05-09T08:55:52.831Z,2552.00
2023-05-09T08:56:53.527Z,2372.00
2023-05-09T08:57:53.274Z,2332.00
2023-05-09T08:58:53.287Z,2672.00
2023-05-09T08:59:53.410Z,2496.00
2023-05-09T09:00:53.562Z,2892.00
2023-05-09T09:01:53.745Z,3356.00
2023-05-09T09:02:54.020Z,3308.00
2023-05-09T09:03:54.177Z,3264.00
2023-05-09T09:04:54.291Z,3128.00
2023-05-09T09:05:55.073Z,2976.00
2023-05-09T09:06:54.641Z,2900.00
2023-05-09T09:07:54.811Z,2456.00
2023-05-09T09:08:55.089Z,1976.00
2023-05-09T09:09:56.028Z,1848.00
2023-05-09T09:10:56.543Z,1800.00
2023-05-09T09:11:55.555Z,1688.00
2023-05-09T09:12:55.845Z,1596.00
2023-05-09T09:13:55.878Z,1540.00
2023-05-09T09:14:56.547Z,1636.00
2023-05-09T09:15:56.180Z,1940.00
2023-05-09T09:16:56.338Z,2328.00
2023-05-09T09:17:56.526Z,2480.00
2023-05-09T09:18:58.939Z,2640.00
2023-05-09T09:19:57.916Z,2596.00
2023-05-09T09:20:57.137Z,2812.00
2023-05-09T09:21:58.048Z,3068.00
2023-05-09T09:22:57.521Z,3172.00
2023-05-09T09:23:58.536Z,3340.00
2023-05-09T09:24:58.086Z,3400.00
2023-05-09T09:25:59.600Z,3364.00
2023-05-09T09:26:59.194Z,3748.00
2023-05-09T09:27:58.541Z,4428.00
2023-05-09T09:28:58.545Z,4752.00
2023-05-09T09:29:58.749Z,4460.00
2023-05-09T09:30:59.604Z,4616.00
2023-05-09T09:31:59.134Z,4328.00
2023-05-09T09:33:00.127Z,3828.00
2023-05-09T09:33:59.440Z,3760.00
2023-05-09T09:34:59.618Z,3648.00
2023-05-09T09:36:00.546Z,3676.00
2023-05-09T09:36:59.945Z,3420.00
2023-05-09T09:38:00.393Z,3356.00
2023-05-09T09:39:00.223Z,2900.00
2023-05-09T09:40:01.078Z,2592.00
2023-05-09T09:41:00.616Z,2340.00
2023-05-09T09:42:00.768Z,2192.00
2023-05-09T09:43:01.671Z,2180.00
2023-05-09T09:44:01.084Z,2168.00
2023-05-09T09:45:01.295Z,2132.00
2023-05-09T09:46:02.153Z,1968.00
2023-05-09T09:47:01.716Z,1928.00
2023-05-09T09:48:01.922Z,1916.00
2023-05-09T09:49:03.999Z,1820.00
2023-05-09T09:50:03.047Z,1672.00
2023-05-09T09:51:02.549Z,1536.00
2023-05-09T09:52:03.546Z,1468.00
2023-05-09T09:53:03.954Z,1476.00
2023-05-09T09:54:03.122Z,1468.00
2023-05-09T09:55:03.310Z,1476.00
2023-05-09T09:56:03.527Z,1512.00
2023-05-09T09:57:03.707Z,1684.00
2023-05-09T09:58:04.214Z,1832.00
2023-05-09T09:59:05.550Z,2084.00
2023-05-09T10:00:05.090Z,2504.00
2023-05-09T10:01:04.561Z,2936.00
2023-05-09T10:02:08.056Z,3004.00
2023-05-09T10:03:06.672Z,3000.00
2023-05-09T10:04:04.966Z,3444.00
2023-05-09T10:05:05.164Z,3348.00
2023-05-09T10:06:05.306Z,3104.00
2023-05-09T10:07:05.511Z,3096.00
2023-05-09T10:08:06.570Z,3016.00
2023-05-09T10:09:05.828Z,2880.00
2023-05-09T10:10:06.140Z,2800.00
2023-05-09T10:11:06.173Z,2664.00
2023-05-09T10:12:06.465Z,2480.00
2023-05-09T10:13:07.267Z,2212.00
2023-05-09T10:14:07.741Z,2000.00
2023-05-09T10:15:07.870Z,1852.00
2023-05-09T10:16:07.033Z,1768.00
2023-05-09T10:17:07.223Z,1756.00
2023-05-09T10:18:08.742Z,1688.00
2023-05-09T10:19:08.182Z,1656.00
2023-05-09T10:20:07.722Z,1628.00
2023-05-09T10:21:08.556Z,1524.00
2023-05-09T10:22:08.045Z,1456.00
2023-05-09T10:23:08.228Z,1508.00
2023-05-09T10:24:08.376Z,1788.00
2023-05-09T10:25:09.126Z,2316.00
2023-05-09T10:26:10.560Z,3136.00
2023-05-09T10:27:09.603Z,4160.00
2023-05-09T10:28:09.726Z,4552.00
2023-05-09T10:29:09.341Z,4856.00
2023-05-09T10:30:09.493Z,5092.00
2023-05-09T10:31:09.661Z,5940.00
2023-05-09T10:32:09.855Z,6120.00
2023-05-09T10:33:10.062Z,5536.00
2023-05-09T10:34:11.085Z,4940.00
2023-05-09T10:35:11.056Z,4416.00
2023-05-09T10:36:12.556Z,4112.00
2023-05-09T10:37:10.906Z,3824.00
2023-05-09T10:38:11.554Z,3568.00
2023-05-09T10:39:12.063Z,3252.00
2023-05-09T10:40:11.295Z,2812.00
2023-05-09T10:41:11.433Z,2488.00
2023-05-09T10:42:11.694Z,2172.00
2023-05-09T10:43:11.945Z,1960.00
2023-05-09T10:44:11.987Z,1924.00
2023-05-09T10:45:12.161Z,1852.00
2023-05-09T10:46:13.630Z,1876.00
2023-05-09T10:47:13.057Z,1856.00
2023-05-09T10:48:16.063Z,1868.00
2023-05-09T10:49:12.977Z,1920.00
2023-05-09T10:50:14.056Z,2116.00
2023-05-09T10:51:13.318Z,2284.00
2023-05-09T10:52:14.101Z,2412.00
2023-05-09T10:53:13.706Z,2532.00
2023-05-09T10:54:13.837Z,2564.00
2023-05-09T10:55:14.194Z,2648.00
2023-05-09T10:56:14.124Z,2692.00
2023-05-09T10:57:14.262Z,2760.00
2023-05-09T10:58:15.189Z,2908.00
2023-05-09T10:59:14.531Z,2900.00
2023-05-09T11:00:14.693Z,2932.00
2023-05-09T11:01:15.811Z,2888.00
2023-05-09T11:02:15.981Z,2888.00
2023-05-09T11:03:15.795Z,2900.00
2023-05-09T11:04:15.295Z,2928.00
2023-05-09T11:05:17.291Z,2964.00
2023-05-09T11:06:15.638Z,2956.00
2023-05-09T11:07:15.812Z,2856.00
2023-05-09T11:08:16.600Z,2780.00
2023-05-09T11:09:17.574Z,2780.00
2023-05-09T11:10:16.305Z,2812.00
2023-05-09T11:11:17.069Z,2960.00
2023-05-09T11:12:16.707Z,3012.00
2023-05-09T11:13:16.852Z,3252.00
2023-05-09T11:14:17.117Z,3504.00
2023-05-09T11:15:17.203Z,3788.00
2023-05-09T11:16:17.303Z,4060.00
2023-05-09T11:17:17.461Z,4304.00
2023-05-09T11:18:18.923Z,4296.00
2023-05-09T11:19:17.768Z,4380.00
2023-05-09T11:20:18.575Z,4496.00
2023-05-09T11:21:18.201Z,4596.00
2023-05-09T11:22:19.077Z,4804.00
2023-05-09T11:23:18.467Z,5040.00
2023-05-09T11:24:18.641Z,5096.00
2023-05-09T11:25:18.771Z,5540.00
2023-05-09T11:26:18.916Z,5608.00
2023-05-09T11:27:19.102Z,6004.00
2023-05-09T11:28:20.737Z,6004.00
2023-05-09T11:29:21.205Z,5968.00
2023-05-09T11:30:19.772Z,5884.00
2023-05-09T11:31:21.640Z,6048.00
2023-05-09T11:32:19.901Z,5736.00
2023-05-09T11:33:20.076Z,5564.00
2023-05-09T11:34:20.275Z,5292.00
2023-05-09T11:35:20.432Z,4972.00
2023-05-09T11:36:20.659Z,4728.00
2023-05-09T11:37:20.756Z,4648.00
2023-05-09T11:38:21.636Z,4512.00
2023-05-09T11:39:21.027Z,4328.00
2023-05-09T11:40:22.078Z,3964.00
2023-05-09T11:41:21.357Z,3772.00
2023-05-09T11:42:22.081Z,3508.00
2023-05-09T11:43:21.720Z,3632.00
2023-05-09T11:44:21.880Z,3624.00
2023-05-09T11:45:22.113Z,3612.00
2023-05-09T11:46:22.317Z,3744.00
2023-05-09T11:47:23.202Z,3964.00
2023-05-09T11:48:22.743Z,4148.00
2023-05-09T11:49:22.884Z,4504.00
2023-05-09T11:50:23.079Z,4852.00
2023-05-09T11:51:24.148Z,5216.00
2023-05-09T11:52:23.981Z,5560.00
2023-05-09T11:53:24.595Z,5904.00
2023-05-09T11:54:24.610Z,5724.00
2023-05-09T11:55:24.012Z,5660.00
2023-05-09T11:56:24.161Z,5692.00
2023-05-09T11:57:24.362Z,5628.00
2023-05-09T11:58:25.087Z,5656.00
2023-05-09T11:59:24.720Z,5736.00
2023-05-09T12:00:25.008Z,5796.00
2023-05-09T12:01:26.643Z,5768.00
2023-05-09T12:02:25.348Z,5872.00
2023-05-09T12:03:25.682Z,5812.00
2023-05-09T12:04:25.615Z,5400.00
2023-05-09T12:05:26.600Z,5216.00
2023-05-09T12:06:26.588Z,5132.00
2023-05-09T12:07:26.655Z,4880.00
2023-05-09T12:08:26.325Z,4960.00
2023-05-09T12:09:27.593Z,4748.00
2023-05-09T12:10:26.719Z,4640.00
2023-05-09T12:11:27.631Z,4516.00
2023-05-09T12:12:27.634Z,4792.00
2023-05-09T12:13:27.403Z,4848.00
2023-05-09T12:14:28.096Z,4948.00
2023-05-09T12:15:28.749Z,5488.00
2023-05-09T12:16:29.150Z,5660.00
2023-05-09T12:17:28.011Z,5764.00
2023-05-09T12:18:28.154Z,5952.00
2023-05-09T12:19:28.209Z,5956.00
2023-05-09T12:20:28.346Z,5864.00
2023-05-09T12:21:29.093Z,5916.00
2023-05-09T12:22:31.095Z,6068.00
2023-05-09T12:23:29.597Z,6328.00
2023-05-09T12:24:29.102Z,6472.00
2023-05-09T12:25:29.235Z,6568.00
2023-05-09T12:26:29.654Z,6512.00
2023-05-09T12:27:30.145Z,6204.00
2023-05-09T12:28:29.784Z,6192.00
2023-05-09T12:29:30.647Z,5720.00
2023-05-09T12:30:32.216Z,5860.00